createdAt,value
2018-06-01T00:00:32.288Z,1006.13
2018-06-01T00:01:32.274Z,1006.15
2018-06-01T00:02:32.262Z,1006.15
2018-06-01T00:03:32.251Z,1006.19
2018-06-01T00:04:32.241Z,1006.18
2018-06-01T00:05:32.233Z,1006.15
2018-06-01T00:06:32.222Z,1006.18
2018-06-01T00:07:32.211Z,1006.2
2018-06-01T00:08:32.200Z,1006.17
2018-06-01T00:09:32.256Z,1006.23
2018-06-01T00:10:32.182Z,1006.22
2018-06-01T00:11:32.172Z,1006.25
2018-06-01T00:12:32.164Z,1006.25
2018-06-01T00:13:32.153Z,1006.24
2018-06-01T00:14:32.139Z,1006.25
2018-06-01T00:15:32.131Z,1006.28
2018-06-01T00:16:32.118Z,1006.33
2018-06-01T00:17:32.109Z,1006.31
2018-06-01T00:18:32.099Z,1006.3
2018-06-01T00:19:32.088Z,1006.3
2018-06-01T00:20:32.082Z,1006.33
2018-06-01T00:21:32.066Z,1006.34
2018-06-01T00:22:32.057Z,1006.3
2018-06-01T00:23:32.050Z,1006.33
2018-06-01T00:24:32.039Z,1006.33
2018-06-01T00:25:32.029Z,1006.32
2018-06-01T00:26:32.018Z,1006.32
2018-06-01T00:27:32.007Z,1006.34
2018-06-01T00:28:31.996Z,1006.38
2018-06-01T00:29:31.987Z,1006.35
2018-06-01T00:30:31.975Z,1006.33
2018-06-01T00:31:31.966Z,1006.34
2018-06-01T00:32:31.960Z,1006.36
2018-06-01T00:33:31.948Z,1006.37
2018-06-01T00:34:31.941Z,1006.3
2018-06-01T00:35:31.926Z,1006.31
2018-06-01T00:36:31.915Z,1006.3
2018-06-01T00:37:32.109Z,1006.3
2018-06-01T00:38:31.895Z,1006.33
2018-06-01T00:39:31.885Z,1006.29
2018-06-01T00:40:31.873Z,1006.31
2018-06-01T00:41:31.865Z,1006.31
2018-06-01T00:42:31.854Z,1006.32
2018-06-01T00:43:31.849Z,1006.39
2018-06-01T00:44:31.834Z,1006.42
2018-06-01T00:45:31.822Z,1006.38
2018-06-01T00:46:31.816Z,1006.43
2018-06-01T00:47:31.806Z,1006.39
2018-06-01T00:48:31.842Z,1006.37
2018-06-01T00:49:31.783Z,1006.36
2018-06-01T00:50:31.772Z,1006.32
2018-06-01T00:51:31.761Z,1006.29
2018-06-01T00:52:31.752Z,1006.28
2018-06-01T00:53:31.750Z,1006.28
2018-06-01T00:54:31.731Z,1006.22
2018-06-01T00:55:31.722Z,1006.24
2018-06-01T00:56:31.710Z,1006.24
2018-06-01T00:57:31.701Z,1006.26
2018-06-01T00:58:31.688Z,1006.26
2018-06-01T00:59:31.682Z,1006.31
2018-06-01T01:00:31.668Z,1006.29
2018-06-01T01:01:31.659Z,1006.28
2018-06-01T01:02:31.647Z,1006.28
2018-06-01T01:03:31.642Z,1006.26
2018-06-01T01:04:31.631Z,1006.2
2018-06-01T01:05:31.619Z,1006.16
2018-06-01T01:06:31.608Z,1006.15
2018-06-01T01:07:31.601Z,1006.1
2018-06-01T01:08:31.587Z,1006.07
2018-06-01T01:09:31.574Z,1006.1
2018-06-01T01:10:31.566Z,1006.07
2018-06-01T01:11:31.557Z,1006.1
2018-06-01T01:12:31.545Z,1006.13
2018-06-01T01:13:31.534Z,1006.11
2018-06-01T01:14:31.575Z,1006.08
2018-06-01T01:15:31.515Z,1006.09
2018-06-01T01:16:31.509Z,1006.07
2018-06-01T01:17:31.498Z,1006.06
2018-06-01T01:18:31.484Z,1006.06
2018-06-01T01:19:31.522Z,1006.09
2018-06-01T01:20:31.463Z,1006.06
2018-06-01T01:21:31.452Z,1006.04
2018-06-01T01:22:31.443Z,1006.02
2018-06-01T01:23:31.436Z,1005.99
2018-06-01T01:24:31.421Z,1005.98
2018-06-01T01:25:31.410Z,1006
2018-06-01T01:26:31.399Z,1006.01
2018-06-01T01:27:31.389Z,1005.96
2018-06-01T01:28:31.379Z,1005.98
2018-06-01T01:29:31.369Z,1005.98
2018-06-01T01:30:31.360Z,1006.01
2018-06-01T01:31:31.347Z,1006.01
2018-06-01T01:32:31.347Z,1006
2018-06-01T01:33:31.327Z,1006.01
2018-06-01T01:34:31.316Z,1005.97
2018-06-01T01:35:31.307Z,1006.02
2018-06-01T01:36:31.296Z,1006.03
2018-06-01T01:37:31.286Z,1006.02
2018-06-01T01:38:31.279Z,1006.04
2018-06-01T01:39:31.264Z,1006.05
2018-06-01T01:40:31.254Z,1006.07
2018-06-01T01:41:31.245Z,1006.07
2018-06-01T01:42:31.233Z,1006.11
2018-06-01T01:43:31.239Z,1006.13
2018-06-01T01:44:31.212Z,1006.2
2018-06-01T01:45:31.201Z,1006.25
2018-06-01T01:46:31.192Z,1006.26
2018-06-01T01:47:31.187Z,1006.29
2018-06-01T01:48:31.173Z,1006.29
2018-06-01T01:49:31.160Z,1006.32
2018-06-01T01:50:31.158Z,1006.35
2018-06-01T01:51:31.139Z,1006.39
2018-06-01T01:52:31.133Z,1006.44
2018-06-01T01:53:31.121Z,1006.45
2018-06-01T01:54:31.110Z,1006.5
2018-06-01T01:55:31.098Z,1006.48
2018-06-01T01:56:31.088Z,1006.51
2018-06-01T01:57:31.080Z,1006.48
2018-06-01T01:58:31.075Z,1006.52
2018-06-01T01:59:31.060Z,1006.49
2018-06-01T02:00:31.048Z,1006.53
2018-06-01T02:01:31.037Z,1006.51
2018-06-01T02:02:31.028Z,1006.54
2018-06-01T02:03:31.018Z,1006.53
2018-06-01T02:04:31.006Z,1006.57
2018-06-01T02:05:30.999Z,1006.64
2018-06-01T02:06:30.987Z,1006.65
2018-06-01T02:07:30.973Z,1006.66
2018-06-01T02:08:30.970Z,1006.69
2018-06-01T02:09:30.955Z,1006.69
2018-06-01T02:10:30.943Z,1006.68
2018-06-01T02:11:30.933Z,1006.67
2018-06-01T02:12:30.922Z,1006.67
2018-06-01T02:13:30.912Z,1006.63
2018-06-01T02:14:30.902Z,1006.64
2018-06-01T02:15:30.891Z,1006.6
2018-06-01T02:16:30.881Z,1006.58
2018-06-01T02:17:30.871Z,1006.6
2018-06-01T02:18:30.860Z,1006.56
2018-06-01T02:19:30.850Z,1006.53
2018-06-01T02:20:30.840Z,1006.54
2018-06-01T02:21:30.829Z,1006.51
2018-06-01T02:22:30.818Z,1006.5
2018-06-01T02:23:30.809Z,1006.47
2018-06-01T02:24:30.797Z,1006.43
2018-06-01T02:25:30.787Z,1006.4
2018-06-01T02:26:30.777Z,1006.41
2018-06-01T02:27:30.767Z,1006.36
2018-06-01T02:28:30.763Z,1006.39
2018-06-01T02:29:30.745Z,1006.34
2018-06-01T02:30:30.736Z,1006.31
2018-06-01T02:31:30.725Z,1006.32
2018-06-01T02:32:30.715Z,1006.3
2018-06-01T02:33:30.705Z,1006.23
2018-06-01T02:34:30.695Z,1006.24
2018-06-01T02:35:30.682Z,1006.25
2018-06-01T02:36:30.672Z,1006.22
2018-06-01T02:37:30.665Z,1006.24
2018-06-01T02:38:30.651Z,1006.22
2018-06-01T02:39:30.641Z,1006.2
2018-06-01T02:40:30.633Z,1006.19
2018-06-01T02:41:30.624Z,1006.18
2018-06-01T02:42:30.611Z,1006.2
2018-06-01T02:43:30.599Z,1006.18
2018-06-01T02:44:30.588Z,1006.19
2018-06-01T02:45:30.579Z,1006.19
2018-06-01T02:46:30.579Z,1006.17
2018-06-01T02:47:30.557Z,1006.14
2018-06-01T02:48:30.546Z,1006.18
2018-06-01T02:49:30.535Z,1006.15
2018-06-01T02:50:30.525Z,1006.15
2018-06-01T02:51:30.518Z,1006.12
2018-06-01T02:52:30.502Z,1006.13
2018-06-01T02:53:30.492Z,1006.11
2018-06-01T02:54:30.486Z,1006.1
2018-06-01T02:55:30.474Z,1006.11
2018-06-01T02:56:30.461Z,1006.11
2018-06-01T02:57:30.450Z,1006.09
2018-06-01T02:58:30.439Z,1006.12
2018-06-01T02:59:30.428Z,1006.14
2018-06-01T03:00:30.418Z,1006.12
2018-06-01T03:01:30.407Z,1006.14
2018-06-01T03:02:30.396Z,1006.15
2018-06-01T03:03:30.386Z,1006.16
2018-06-01T03:04:30.377Z,1006.12
2018-06-01T03:05:30.365Z,1006.12
2018-06-01T03:06:30.355Z,1006.12
2018-06-01T03:07:30.343Z,1006.08
2018-06-01T03:08:30.345Z,1006.09
2018-06-01T03:09:30.320Z,1006.04
2018-06-01T03:10:30.312Z,1006.02
2018-06-01T03:11:30.300Z,1006.01
2018-06-01T03:12:30.294Z,1006
2018-06-01T03:13:30.282Z,1005.94
2018-06-01T03:14:30.270Z,1005.96
2018-06-01T03:15:30.265Z,1005.93
2018-06-01T03:16:30.250Z,1005.93
2018-06-01T03:17:30.237Z,1005.9
2018-06-01T03:18:30.229Z,1005.84
2018-06-01T03:19:30.223Z,1005.86
2018-06-01T03:20:30.204Z,1005.87
2018-06-01T03:21:30.197Z,1005.83
2018-06-01T03:22:30.187Z,1005.81
2018-06-01T03:23:30.173Z,1005.81
2018-06-01T03:24:30.162Z,1005.81
2018-06-01T03:25:30.154Z,1005.8
2018-06-01T03:26:30.141Z,1005.78
2018-06-01T03:27:30.133Z,1005.78
2018-06-01T03:28:30.128Z,1005.78
2018-06-01T03:29:30.113Z,1005.8
2018-06-01T03:30:30.101Z,1005.81
2018-06-01T03:31:30.087Z,1005.81
2018-06-01T03:32:30.076Z,1005.79
2018-06-01T03:33:30.072Z,1005.79
2018-06-01T03:34:30.058Z,1005.74
2018-06-01T03:35:30.044Z,1005.72
2018-06-01T03:36:30.036Z,1005.71
2018-06-01T03:37:30.039Z,1005.71
2018-06-01T03:38:30.016Z,1005.72
2018-06-01T03:39:30.002Z,1005.76
2018-06-01T03:40:29.994Z,1005.76
2018-06-01T03:41:29.989Z,1005.78
2018-06-01T03:42:29.971Z,1005.83
2018-06-01T03:43:29.960Z,1005.83
2018-06-01T03:44:29.952Z,1005.85
2018-06-01T03:45:29.941Z,1005.9
2018-06-01T03:46:29.928Z,1005.86
2018-06-01T03:47:29.924Z,1005.86
2018-06-01T03:48:29.910Z,1005.9
2018-06-01T03:49:29.897Z,1005.91
2018-06-01T03:50:29.889Z,1005.94
2018-06-01T03:51:29.876Z,1005.96
2018-06-01T03:52:29.868Z,1005.98
2018-06-01T03:53:29.858Z,1005.97
2018-06-01T03:54:29.845Z,1005.99
2018-06-01T03:55:29.836Z,1005.97
2018-06-01T03:56:29.825Z,1005.98
2018-06-01T03:57:29.819Z,1006.03
2018-06-01T03:58:29.804Z,1006
2018-06-01T03:59:29.792Z,1006.01
2018-06-01T04:00:29.784Z,1006
2018-06-01T04:01:29.771Z,1006.03
2018-06-01T04:02:29.767Z,1006.03
2018-06-01T04:03:29.752Z,1006.06
2018-06-01T04:04:29.744Z,1006.07
2018-06-01T04:05:29.733Z,1006.1
2018-06-01T04:06:29.720Z,1006.09
2018-06-01T04:07:29.711Z,1006.13
2018-06-01T04:08:29.699Z,1006.13
2018-06-01T04:09:29.695Z,1006.11
2018-06-01T04:10:29.679Z,1006.12
2018-06-01T04:11:29.675Z,1006.09
2018-06-01T04:12:29.661Z,1006.14
2018-06-01T04:13:29.649Z,1006.13
2018-06-01T04:14:29.640Z,1006.16
2018-06-01T04:15:29.628Z,1006.2
2018-06-01T04:16:29.617Z,1006.19
2018-06-01T04:17:29.614Z,1006.21
2018-06-01T04:18:29.596Z,1006.24
2018-06-01T04:19:29.647Z,1006.26
2018-06-01T04:20:29.577Z,1006.22
2018-06-01T04:21:29.568Z,1006.35
2018-06-01T04:22:29.557Z,1006.32
2018-06-01T04:23:29.549Z,1006.38
2018-06-01T04:24:29.537Z,1006.34
2018-06-01T04:25:29.524Z,1006.32
2018-06-01T04:26:29.516Z,1006.32
2018-06-01T04:27:29.505Z,1006.27
2018-06-01T04:28:29.493Z,1006.27
2018-06-01T04:29:29.482Z,1006.26
2018-06-01T04:30:29.471Z,1006.3
2018-06-01T04:31:29.462Z,1006.26
2018-06-01T04:32:29.452Z,1006.23
2018-06-01T04:33:29.442Z,1006.31
2018-06-01T04:34:29.431Z,1006.31
2018-06-01T04:35:29.422Z,1006.33
2018-06-01T04:36:29.415Z,1006.38
2018-06-01T04:37:29.401Z,1006.39
2018-06-01T04:38:29.391Z,1006.41
2018-06-01T04:39:29.381Z,1006.39
2018-06-01T04:40:29.408Z,1006.39
2018-06-01T04:41:29.362Z,1006.41
2018-06-01T04:42:29.350Z,1006.41
2018-06-01T04:43:29.343Z,1006.38
2018-06-01T04:44:29.330Z,1006.39
2018-06-01T04:45:29.320Z,1006.39
2018-06-01T04:46:29.313Z,1006.43
2018-06-01T04:47:29.299Z,1006.46
2018-06-01T04:48:29.288Z,1006.48
2018-06-01T04:49:29.280Z,1006.44
2018-06-01T04:50:29.272Z,1006.47
2018-06-01T04:51:29.259Z,1006.45
2018-06-01T04:52:29.249Z,1006.46
2018-06-01T04:53:29.242Z,1006.5
2018-06-01T04:54:29.230Z,1006.53
2018-06-01T04:55:29.228Z,1006.5
2018-06-01T04:56:29.209Z,1006.59
2018-06-01T04:57:29.201Z,1006.59
2018-06-01T04:58:29.192Z,1006.63
2018-06-01T04:59:29.179Z,1006.66
2018-06-01T05:00:29.172Z,1006.68
2018-06-01T05:01:29.161Z,1006.74
2018-06-01T05:02:29.151Z,1006.75
2018-06-01T05:03:29.138Z,1006.75
2018-06-01T05:04:29.133Z,1006.69
2018-06-01T05:05:29.121Z,1006.7
2018-06-01T05:06:29.111Z,1006.66
2018-06-01T05:07:29.100Z,1006.63
2018-06-01T05:08:29.093Z,1006.64
2018-06-01T05:09:29.081Z,1006.63
2018-06-01T05:10:29.068Z,1006.62
2018-06-01T05:11:29.058Z,1006.62
2018-06-01T05:12:29.051Z,1006.65
2018-06-01T05:13:29.042Z,1006.66
2018-06-01T05:14:29.031Z,1006.67
2018-06-01T05:15:29.019Z,1006.7
2018-06-01T05:16:29.011Z,1006.72
2018-06-01T05:17:28.998Z,1006.75
2018-06-01T05:18:28.989Z,1006.7
2018-06-01T05:19:28.981Z,1006.74
2018-06-01T05:20:28.972Z,1006.72
2018-06-01T05:21:28.960Z,1006.72
2018-06-01T05:22:28.953Z,1006.68
2018-06-01T05:23:28.943Z,1006.7
2018-06-01T05:24:28.934Z,1006.7
2018-06-01T05:25:28.924Z,1006.72
2018-06-01T05:26:28.914Z,1006.66
2018-06-01T05:27:28.902Z,1006.71
2018-06-01T05:28:28.895Z,1006.71
2018-06-01T05:29:28.886Z,1006.66
2018-06-01T05:30:28.877Z,1006.71
2018-06-01T05:31:28.864Z,1006.69
2018-06-01T05:32:28.858Z,1006.67
2018-06-01T05:33:28.846Z,1006.68
2018-06-01T05:34:28.835Z,1006.66
2018-06-01T05:35:28.854Z,1006.66
2018-06-01T05:36:28.818Z,1006.69
2018-06-01T05:37:28.809Z,1006.69
2018-06-01T05:38:28.797Z,1006.67
2018-06-01T05:39:28.789Z,1006.69
2018-06-01T05:40:28.783Z,1006.7
2018-06-01T05:41:28.772Z,1006.74
2018-06-01T05:42:28.760Z,1006.76
2018-06-01T05:43:28.753Z,1006.78
2018-06-01T05:44:28.752Z,1006.8
2018-06-01T05:45:28.734Z,1006.82
2018-06-01T05:46:28.723Z,1006.87
2018-06-01T05:47:28.716Z,1006.85
2018-06-01T05:48:28.705Z,1006.86
2018-06-01T05:49:28.698Z,1006.87
2018-06-01T05:50:28.686Z,1006.89
2018-06-01T05:51:28.678Z,1006.9
2018-06-01T05:52:28.673Z,1006.87
2018-06-01T05:53:28.661Z,1006.94
2018-06-01T05:54:28.690Z,1006.91
2018-06-01T05:55:28.643Z,1006.95
2018-06-01T05:56:28.634Z,1006.97
2018-06-01T05:57:28.627Z,1007.01
2018-06-01T05:58:28.616Z,1007
2018-06-01T05:59:28.610Z,1007
2018-06-01T06:00:28.597Z,1006.99
2018-06-01T06:01:28.595Z,1006.98
2018-06-01T06:02:28.579Z,1006.98
2018-06-01T06:03:28.570Z,1006.96
2018-06-01T06:04:28.606Z,1006.98
2018-06-01T06:05:28.552Z,1006.98
2018-06-01T06:06:28.546Z,1006.98
2018-06-01T06:07:28.534Z,1006.99
2018-06-01T06:08:28.532Z,1007
2018-06-01T06:09:28.515Z,1007.02
2018-06-01T06:10:28.508Z,1007.03
2018-06-01T06:11:28.498Z,1007.07
2018-06-01T06:12:28.489Z,1007.04
2018-06-01T06:13:28.489Z,1007.06
2018-06-01T06:14:28.472Z,1007.06
2018-06-01T06:15:28.464Z,1007.03
2018-06-01T06:16:28.454Z,1007
2018-06-01T06:17:28.448Z,1006.99
2018-06-01T06:18:28.437Z,1006.98
2018-06-01T06:19:28.427Z,1006.94
2018-06-01T06:20:28.419Z,1006.93
2018-06-01T06:21:28.411Z,1006.92
2018-06-01T06:22:28.556Z,1006.89
2018-06-01T06:23:28.400Z,1006.89
2018-06-01T06:24:28.388Z,1006.86
2018-06-01T06:25:28.376Z,1006.87
2018-06-01T06:26:28.369Z,1006.92
2018-06-01T06:27:28.362Z,1006.93
2018-06-01T06:28:28.352Z,1006.89
2018-06-01T06:29:28.341Z,1006.91
2018-06-01T06:30:28.329Z,1006.91
2018-06-01T06:31:28.462Z,1006.84
2018-06-01T06:32:28.325Z,1006.87
2018-06-01T06:33:28.356Z,1006.83
2018-06-01T06:34:28.295Z,1006.87
2018-06-01T06:35:28.292Z,1006.83
2018-06-01T06:36:28.283Z,1006.82
2018-06-01T06:37:28.268Z,1006.82
2018-06-01T06:38:28.462Z,1006.82
2018-06-01T06:39:28.252Z,1006.81
2018-06-01T06:40:28.243Z,1006.79
2018-06-01T06:41:28.234Z,1006.75
2018-06-01T06:42:28.228Z,1006.79
2018-06-01T06:43:28.216Z,1006.79
2018-06-01T06:44:28.209Z,1006.78
2018-06-01T06:45:28.197Z,1006.77
2018-06-01T06:46:28.193Z,1006.73
2018-06-01T06:47:28.185Z,1006.67
2018-06-01T06:48:28.174Z,1006.69
2018-06-01T06:49:28.166Z,1006.68
2018-06-01T06:50:28.155Z,1006.7
2018-06-01T06:51:28.151Z,1006.69
2018-06-01T06:52:28.138Z,1006.67
2018-06-01T06:53:28.130Z,1006.76
2018-06-01T06:54:28.123Z,1006.73
2018-06-01T06:55:28.116Z,1006.68
2018-06-01T06:56:28.108Z,1006.68
2018-06-01T06:57:28.097Z,1006.62
2018-06-01T06:58:28.088Z,1006.62
2018-06-01T06:59:28.085Z,1006.56
2018-06-01T07:00:28.078Z,1006.54
2018-06-01T07:01:28.063Z,1006.54
2018-06-01T07:02:28.054Z,1006.55
2018-06-01T07:03:28.052Z,1006.55
2018-06-01T07:04:28.046Z,1006.49
2018-06-01T07:05:28.031Z,1006.54
2018-06-01T07:06:28.024Z,1006.49
2018-06-01T07:07:28.018Z,1006.51
2018-06-01T07:08:28.006Z,1006.53
2018-06-01T07:09:28.001Z,1006.54
2018-06-01T07:10:27.998Z,1006.54
2018-06-01T07:11:27.984Z,1006.53
2018-06-01T07:12:27.973Z,1006.57
2018-06-01T07:13:27.970Z,1006.54
2018-06-01T07:14:27.958Z,1006.55
2018-06-01T07:15:27.951Z,1006.56
2018-06-01T07:16:27.943Z,1006.57
2018-06-01T07:17:27.935Z,1006.58
2018-06-01T07:18:27.924Z,1006.58
2018-06-01T07:19:27.918Z,1006.62
2018-06-01T07:20:27.911Z,1006.6
2018-06-01T07:21:27.900Z,1006.61
2018-06-01T07:22:27.950Z,1006.67
2018-06-01T07:23:27.892Z,1006.67
2018-06-01T07:24:27.880Z,1006.74
2018-06-01T07:25:27.869Z,1006.74
2018-06-01T07:26:27.860Z,1006.77
2018-06-01T07:27:27.854Z,1006.82
2018-06-01T07:28:27.904Z,1006.81
2018-06-01T07:29:27.838Z,1006.88
2018-06-01T07:30:27.830Z,1006.91
2018-06-01T07:31:27.821Z,1006.93
2018-06-01T07:32:27.813Z,1007
2018-06-01T07:33:27.805Z,1007
2018-06-01T07:34:27.798Z,1007.01
2018-06-01T07:35:27.788Z,1006.98
2018-06-01T07:36:27.781Z,1006.99
2018-06-01T07:37:27.777Z,1007.03
2018-06-01T07:38:27.764Z,1007.03
2018-06-01T07:39:27.763Z,1007
2018-06-01T07:40:27.748Z,1007.08
2018-06-01T07:41:27.743Z,1007.1
2018-06-01T07:42:27.734Z,1007.15
2018-06-01T07:43:27.723Z,1007.13
2018-06-01T07:44:27.716Z,1007.24
2018-06-01T07:45:27.709Z,1007.34
2018-06-01T07:46:27.702Z,1007.42
2018-06-01T07:47:27.694Z,1007.58
2018-06-01T07:48:27.684Z,1007.64
2018-06-01T07:49:27.681Z,1007.71
2018-06-01T07:50:27.669Z,1007.72
2018-06-01T07:51:27.660Z,1007.76
2018-06-01T07:52:27.652Z,1007.74
2018-06-01T07:53:27.850Z,1007.71
2018-06-01T07:54:27.638Z,1007.68
2018-06-01T07:55:27.634Z,1007.62
2018-06-01T07:56:27.618Z,1007.54
2018-06-01T07:57:27.638Z,1007.44
2018-06-01T07:58:27.604Z,1007.36
2018-06-01T07:59:27.597Z,1007.24
2018-06-01T08:00:27.588Z,1007.06
2018-06-01T08:01:27.582Z,1006.88
2018-06-01T08:02:27.568Z,1006.9
2018-06-01T08:03:27.596Z,1006.95
2018-06-01T08:04:27.552Z,1007
2018-06-01T08:05:27.542Z,1007.03
2018-06-01T08:06:27.535Z,1007.12
2018-06-01T08:07:27.528Z,1007.21
2018-06-01T08:08:27.520Z,1007.26
2018-06-01T08:09:27.513Z,1007.26
2018-06-01T08:10:27.504Z,1007.31
2018-06-01T08:11:27.496Z,1007.31
2018-06-01T08:12:27.485Z,1007.31
2018-06-01T08:13:27.474Z,1007.34
2018-06-01T08:14:27.466Z,1007.3
2018-06-01T08:15:27.457Z,1007.24
2018-06-01T08:16:27.460Z,1007.19
2018-06-01T08:17:27.440Z,1007.16
2018-06-01T08:18:27.432Z,1007.18
2018-06-01T08:19:27.426Z,1007.12
2018-06-01T08:20:27.414Z,1007.16
2018-06-01T08:21:27.408Z,1007.12
2018-06-01T08:22:27.397Z,1007.06
2018-06-01T08:23:27.402Z,1007.08
2018-06-01T08:24:27.381Z,1007.05
2018-06-01T08:25:27.370Z,1007.06
2018-06-01T08:26:27.362Z,1007.06
2018-06-01T08:27:27.354Z,1007.04
2018-06-01T08:28:27.346Z,1007.06
2018-06-01T08:29:27.334Z,1006.97
2018-06-01T08:30:27.331Z,1006.97
2018-06-01T08:31:27.319Z,1006.92
2018-06-01T08:32:27.375Z,1006.9
2018-06-01T08:33:27.301Z,1006.92
2018-06-01T08:34:27.299Z,1006.92
2018-06-01T08:35:27.282Z,1006.94
2018-06-01T08:36:27.277Z,1006.91
2018-06-01T08:37:27.264Z,1006.9
2018-06-01T08:38:27.459Z,1006.83
2018-06-01T08:39:27.255Z,1006.81
2018-06-01T08:40:27.241Z,1006.81
2018-06-01T08:41:27.234Z,1006.85
2018-06-01T08:42:27.221Z,1006.85
2018-06-01T08:43:27.210Z,1006.84
2018-06-01T08:44:27.204Z,1006.85
2018-06-01T08:45:27.195Z,1006.87
2018-06-01T08:46:27.242Z,1006.79
2018-06-01T08:47:27.176Z,1006.8
2018-06-01T08:48:27.170Z,1006.84
2018-06-01T08:49:27.159Z,1006.84
2018-06-01T08:50:27.153Z,1006.83
2018-06-01T08:51:27.143Z,1006.86
2018-06-01T08:52:27.191Z,1006.8
2018-06-01T08:53:27.123Z,1006.81
2018-06-01T08:54:27.116Z,1006.84
2018-06-01T08:55:27.107Z,1006.9
2018-06-01T08:56:27.097Z,1006.89
2018-06-01T08:57:27.087Z,1006.91
2018-06-01T08:58:27.075Z,1006.84
2018-06-01T08:59:27.067Z,1006.81
2018-06-01T09:00:27.057Z,1006.82
2018-06-01T09:01:27.048Z,1006.81
2018-06-01T09:02:27.042Z,1006.81
2018-06-01T09:03:27.034Z,1006.84
2018-06-01T09:04:27.023Z,1006.85
2018-06-01T09:05:27.098Z,1006.83
2018-06-01T09:06:27.003Z,1006.83
2018-06-01T09:07:26.993Z,1006.81
2018-06-01T09:08:26.987Z,1006.86
2018-06-01T09:09:26.977Z,1006.89
2018-06-01T09:10:27.025Z,1006.89
2018-06-01T09:11:26.968Z,1006.93
2018-06-01T09:12:26.951Z,1006.97
2018-06-01T09:13:26.941Z,1006.96
2018-06-01T09:14:26.933Z,1006.99
2018-06-01T09:15:26.918Z,1006.97
2018-06-01T09:16:26.912Z,1006.98
2018-06-01T09:17:26.905Z,1006.94
2018-06-01T09:18:26.892Z,1007.02
2018-06-01T09:19:26.883Z,1006.96
2018-06-01T09:20:26.878Z,1006.95
2018-06-01T09:21:26.868Z,1006.98
2018-06-01T09:22:26.856Z,1006.96
2018-06-01T09:23:26.853Z,1007
2018-06-01T09:24:26.841Z,1007.01
2018-06-01T09:25:26.829Z,1007.02
2018-06-01T09:26:26.818Z,1007.02
2018-06-01T09:27:26.810Z,1007.01
2018-06-01T09:28:26.861Z,1007.01
2018-06-01T09:29:26.790Z,1007.01
2018-06-01T09:30:26.785Z,1007.07
2018-06-01T09:31:26.777Z,1007.06
2018-06-01T09:32:26.771Z,1007.07
2018-06-01T09:33:26.756Z,1007.07
2018-06-01T09:34:26.782Z,1007.06
2018-06-01T09:35:26.746Z,1007.05
2018-06-01T09:36:26.731Z,1007.08
2018-06-01T09:37:26.722Z,1007.06
2018-06-01T09:38:26.714Z,1007.1
2018-06-01T09:39:26.704Z,1007.16
2018-06-01T09:40:26.695Z,1007.12
2018-06-01T09:41:26.690Z,1007.19
2018-06-01T09:42:26.681Z,1007.14
2018-06-01T09:43:26.672Z,1007.14
2018-06-01T09:44:26.658Z,1007.16
2018-06-01T09:45:26.651Z,1007.14
2018-06-01T09:46:26.644Z,1007.15
2018-06-01T09:47:26.633Z,1007.17
2018-06-01T09:48:26.626Z,1007.18
2018-06-01T09:49:26.617Z,1007.24
2018-06-01T09:50:26.611Z,1007.27
2018-06-01T09:51:26.599Z,1007.23
2018-06-01T09:52:26.591Z,1007.2
2018-06-01T09:53:26.582Z,1007.22
2018-06-01T09:54:26.572Z,1007.2
2018-06-01T09:55:26.606Z,1007.18
2018-06-01T09:56:26.580Z,1007.18
2018-06-01T09:57:26.548Z,1007.17
2018-06-01T09:58:26.540Z,1007.13
2018-06-01T09:59:26.530Z,1007.11
2018-06-01T10:00:26.521Z,1007.12
2018-06-01T10:01:26.514Z,1007.16
2018-06-01T10:02:26.504Z,1007.16
2018-06-01T10:03:26.497Z,1007.2
2018-06-01T10:04:26.496Z,1007.26
2018-06-01T10:05:26.479Z,1007.28
2018-06-01T10:06:26.471Z,1007.36
2018-06-01T10:07:26.465Z,1007.38
2018-06-01T10:08:26.453Z,1007.36
2018-06-01T10:09:26.444Z,1007.37
2018-06-01T10:10:26.439Z,1007.4
2018-06-01T10:11:26.431Z,1007.43
2018-06-01T10:12:26.422Z,1007.42
2018-06-01T10:13:26.414Z,1007.37
2018-06-01T10:14:26.406Z,1007.37
2018-06-01T10:15:26.397Z,1007.35
2018-06-01T10:16:26.389Z,1007.31
2018-06-01T10:17:26.382Z,1007.33
2018-06-01T10:18:26.375Z,1007.35
2018-06-01T10:19:26.369Z,1007.34
2018-06-01T10:20:26.358Z,1007.33
2018-06-01T10:21:26.355Z,1007.32
2018-06-01T10:22:26.344Z,1007.36
2018-06-01T10:23:26.335Z,1007.31
2018-06-01T10:24:26.326Z,1007.31
2018-06-01T10:25:26.356Z,1007.32
2018-06-01T10:26:26.344Z,1007.24
2018-06-01T10:27:26.305Z,1007.2
2018-06-01T10:28:26.302Z,1007.19
2018-06-01T10:29:26.294Z,1007.2
2018-06-01T10:30:26.295Z,1007.18
2018-06-01T10:31:26.292Z,1007.12
2018-06-01T10:32:26.272Z,1007.06
2018-06-01T10:33:26.259Z,1007.07
2018-06-01T10:34:26.258Z,1007.08
2018-06-01T10:35:26.262Z,1007.03
2018-06-01T10:36:26.240Z,1007.03
2018-06-01T10:37:26.239Z,1007
2018-06-01T10:38:26.430Z,1006.96
2018-06-01T10:39:26.220Z,1006.95
2018-06-01T10:40:26.210Z,1006.98
2018-06-01T10:41:26.202Z,1006.97
2018-06-01T10:42:26.196Z,1006.97
2018-06-01T10:43:26.189Z,1006.99
2018-06-01T10:44:26.183Z,1006.98
2018-06-01T10:45:26.176Z,1006.97
2018-06-01T10:46:26.171Z,1006.97
2018-06-01T10:47:26.171Z,1007.03
2018-06-01T10:48:26.156Z,1007.03
2018-06-01T10:49:26.151Z,1007.06
2018-06-01T10:50:26.144Z,1007.05
2018-06-01T10:51:26.136Z,1007.07
2018-06-01T10:52:26.132Z,1007.09
2018-06-01T10:53:26.126Z,1007.13
2018-06-01T10:54:26.167Z,1007.12
2018-06-01T10:55:26.316Z,1007.12
2018-06-01T10:56:26.117Z,1007.15
2018-06-01T10:57:26.100Z,1007.17
2018-06-01T10:58:26.094Z,1007.17
2018-06-01T10:59:26.099Z,1007.21
2018-06-01T11:00:26.084Z,1007.2
2018-06-01T11:01:26.076Z,1007.18
2018-06-01T11:02:26.072Z,1007.2
2018-06-01T11:03:26.066Z,1007.19
2018-06-01T11:04:26.058Z,1007.25
2018-06-01T11:05:26.053Z,1007.26
2018-06-01T11:06:26.048Z,1007.24
2018-06-01T11:07:26.044Z,1007.27
2018-06-01T11:08:26.040Z,1007.32
2018-06-01T11:09:26.030Z,1007.29
2018-06-01T11:10:26.031Z,1007.34
2018-06-01T11:11:26.020Z,1007.32
2018-06-01T11:12:26.013Z,1007.32
2018-06-01T11:13:26.014Z,1007.31
2018-06-01T11:14:26.115Z,1007.31
2018-06-01T11:15:25.999Z,1007.3
2018-06-01T11:16:25.998Z,1007.35
2018-06-01T11:17:25.987Z,1007.33
2018-06-01T11:18:25.980Z,1007.32
2018-06-01T11:19:25.975Z,1007.34
2018-06-01T11:20:25.972Z,1007.36
2018-06-01T11:21:26.043Z,1007.33
2018-06-01T11:22:25.961Z,1007.32
2018-06-01T11:23:25.955Z,1007.37
2018-06-01T11:24:25.960Z,1007.37
2018-06-01T11:25:25.951Z,1007.35
2018-06-01T11:26:25.939Z,1007.42
2018-06-01T11:27:25.937Z,1007.41
2018-06-01T11:28:25.931Z,1007.43
2018-06-01T11:29:25.928Z,1007.4
2018-06-01T11:30:25.925Z,1007.41
2018-06-01T11:31:25.919Z,1007.46
2018-06-01T11:32:25.920Z,1007.45
2018-06-01T11:33:25.909Z,1007.44
2018-06-01T11:34:25.906Z,1007.42
2018-06-01T11:35:25.902Z,1007.42
2018-06-01T11:36:25.897Z,1007.39
2018-06-01T11:37:25.892Z,1007.41
2018-06-01T11:38:25.895Z,1007.4
2018-06-01T11:39:25.882Z,1007.39
2018-06-01T11:40:25.881Z,1007.45
2018-06-01T11:41:25.874Z,1007.49
2018-06-01T11:42:25.923Z,1007.47
2018-06-01T11:43:25.867Z,1007.49
2018-06-01T11:44:25.863Z,1007.48
2018-06-01T11:45:25.860Z,1007.5
2018-06-01T11:46:25.857Z,1007.4
2018-06-01T11:47:25.861Z,1007.43
2018-06-01T11:48:25.851Z,1007.43
2018-06-01T11:49:25.845Z,1007.46
2018-06-01T11:50:25.843Z,1007.45
2018-06-01T11:51:25.893Z,1007.44
2018-06-01T11:52:25.839Z,1007.47
2018-06-01T11:53:25.835Z,1007.33
2018-06-01T11:54:25.830Z,1007.38
2018-06-01T11:55:25.830Z,1007.38
2018-06-01T11:56:25.827Z,1007.37
2018-06-01T11:57:25.828Z,1007.33
2018-06-01T11:58:25.824Z,1007.29
2018-06-01T11:59:25.821Z,1007.3
2018-06-01T12:00:25.817Z,1007.31
2018-06-01T12:01:25.816Z,1007.34
2018-06-01T12:02:25.817Z,1007.42
2018-06-01T12:03:25.814Z,1007.4
2018-06-01T12:04:25.813Z,1007.36
2018-06-01T12:05:25.814Z,1007.32
2018-06-01T12:06:25.813Z,1007.31
2018-06-01T12:07:25.814Z,1007.32
2018-06-01T12:08:25.817Z,1007.35
2018-06-01T12:09:25.815Z,1007.4